createdAt,value
2023-05-01T00:07:27.751Z,17.85
2023-05-01T00:17:34.463Z,17.85
2023-05-01T00:27:41.376Z,17.84
2023-05-01T00:37:48.381Z,17.83
2023-05-01T00:47:55.898Z,17.83
2023-05-01T00:58:03.619Z,17.79
2023-05-01T01:08:10.518Z,17.79
2023-05-01T01:18:17.779Z,17.80
2023-05-01T01:28:24.685Z,17.80
2023-05-01T01:38:32.074Z,17.79
2023-05-01T01:48:38.682Z,17.79
2023-05-01T01:58:44.855Z,17.77
2023-05-01T02:08:51.568Z,17.77
2023-05-01T02:18:58.773Z,17.77
2023-05-01T02:29:05.595Z,17.76
2023-05-01T02:39:12.878Z,17.75
2023-05-01T02:49:19.921Z,17.73
2023-05-01T02:59:27.250Z,17.76
2023-05-01T03:09:34.361Z,17.75
2023-05-01T03:19:41.282Z,17.75
2023-05-01T03:29:48.443Z,17.73
2023-05-01T03:39:55.492Z,17.73
2023-05-01T03:50:03.474Z,17.73
2023-05-01T04:00:10.241Z,17.71
2023-05-01T04:10:17.087Z,17.71
2023-05-01T04:20:24.566Z,17.73
2023-05-01T04:30:31.209Z,17.73
2023-05-01T04:40:38.381Z,17.73
2023-05-01T04:50:45.717Z,17.73
2023-05-01T05:00:52.625Z,17.75
2023-05-01T05:10:59.745Z,17.91
2023-05-01T05:21:07.318Z,17.91
2023-05-01T05:31:14.666Z,17.95
2023-05-01T05:41:21.761Z,18.02
2023-05-01T05:51:28.726Z,18.05
2023-05-01T06:01:35.587Z,18.14
2023-05-01T06:11:42.846Z,18.25
2023-05-01T06:21:49.740Z,18.34
2023-05-01T06:31:56.920Z,18.46
2023-05-01T06:42:04.026Z,18.53
2023-05-01T06:52:10.832Z,18.63
2023-05-01T07:02:18.338Z,18.88
2023-05-01T07:12:25.642Z,18.96
2023-05-01T07:22:32.961Z,18.96
2023-05-01T07:32:40.314Z,19.08
2023-05-01T07:42:48.009Z,19.18
2023-05-01T07:52:55.012Z,19.27
2023-05-01T08:03:02.486Z,19.34
2023-05-01T08:13:09.209Z,19.40
2023-05-01T08:23:16.518Z,19.46
2023-05-01T08:33:23.526Z,19.49
2023-05-01T08:43:30.176Z,19.54
2023-05-01T08:53:37.652Z,19.59
2023-05-01T09:03:44.595Z,19.73
2023-05-01T09:13:51.823Z,19.86
2023-05-01T09:23:58.791Z,19.95
2023-05-01T09:34:05.924Z,19.98
2023-05-01T09:44:13.104Z,19.98
2023-05-01T09:54:19.983Z,19.91
2023-05-01T10:04:26.828Z,19.81
2023-05-01T10:14:33.870Z,19.73
2023-05-01T10:24:41.341Z,19.51
2023-05-01T10:34:48.724Z,19.51
2023-05-01T10:44:55.512Z,19.38
2023-05-01T10:55:02.774Z,19.29
2023-05-01T11:05:10.058Z,19.24
2023-05-01T11:15:16.888Z,19.14
2023-05-01T11:25:23.326Z,19.07
2023-05-01T11:35:30.418Z,19.01
2023-05-01T11:45:37.316Z,18.98
2023-05-01T11:55:45.245Z,18.95
2023-05-01T12:05:52.664Z,18.92
2023-05-01T12:16:00.168Z,18.90
2023-05-01T12:26:07.411Z,18.88
2023-05-01T12:36:14.900Z,18.81
2023-05-01T12:46:21.918Z,18.81
2023-05-01T12:56:29.473Z,18.81
2023-05-01T13:06:35.452Z,18.79
2023-05-01T13:16:42.534Z,18.78
2023-05-01T13:26:49.625Z,18.78
2023-05-01T13:36:56.887Z,18.78
2023-05-01T13:47:03.790Z,18.76
2023-05-01T13:57:10.861Z,18.76
2023-05-01T14:07:17.984Z,18.75
2023-05-01T14:17:24.853Z,18.76
2023-05-01T14:27:32.149Z,18.73
2023-05-01T14:37:39.230Z,18.73
2023-05-01T14:47:45.961Z,18.73
2023-05-01T14:57:53.372Z,18.68
2023-05-01T15:08:00.215Z,18.68
2023-05-01T15:18:07.092Z,18.68
2023-05-01T15:28:14.979Z,18.63
2023-05-01T15:38:22.485Z,18.63
2023-05-01T15:48:29.044Z,18.62
2023-05-01T15:58:35.176Z,18.63
2023-05-01T16:08:42.517Z,18.66
2023-05-01T16:18:49.822Z,18.61
2023-05-01T16:28:56.417Z,18.61
2023-05-01T16:39:03.659Z,18.63
2023-05-01T16:49:10.518Z,18.62
2023-05-01T16:59:17.310Z,18.62
2023-05-01T17:09:24.824Z,18.59
2023-05-01T17:19:32.156Z,18.59
2023-05-01T17:29:38.845Z,18.59
2023-05-01T17:39:46.382Z,18.54
2023-05-01T17:49:53.001Z,18.54
2023-05-01T18:00:00.571Z,18.54
2023-05-01T18:10:07.869Z,18.53
2023-05-01T18:20:15.054Z,18.47
2023-05-01T18:30:22.093Z,18.44
2023-05-01T18:40:29.319Z,18.44
2023-05-01T18:50:36.023Z,18.44
2023-05-01T19:00:42.076Z,18.41
2023-05-01T19:10:49.573Z,18.38
2023-05-01T19:20:56.688Z,18.37
2023-05-01T19:31:04.043Z,18.34
2023-05-01T19:41:11.166Z,18.34
2023-05-01T19:51:18.208Z,18.35
2023-05-01T20:01:25.600Z,18.32
2023-05-01T20:11:32.375Z,18.31
2023-05-01T20:21:39.499Z,18.31
2023-05-01T20:31:46.684Z,18.31
2023-05-01T20:41:53.919Z,18.30
2023-05-01T20:52:00.910Z,18.27
2023-05-01T21:02:08.184Z,18.27
2023-05-01T21:12:15.624Z,18.27
2023-05-01T21:22:22.778Z,18.27
2023-05-01T21:32:29.818Z,18.27
2023-05-01T21:42:36.693Z,18.27
2023-05-01T21:52:43.737Z,18.27
2023-05-01T22:02:51.419Z,18.27
2023-05-01T22:12:58.067Z,18.27
2023-05-01T22:23:05.052Z,18.25
2023-05-01T22:33:12.482Z,18.27
2023-05-01T22:43:19.045Z,18.27
2023-05-01T22:53:26.176Z,18.27
2023-05-01T23:03:34.641Z,18.25
2023-05-01T23:13:44.014Z,18.27
2023-05-01T23:23:50.200Z,18.25
2023-05-01T23:33:57.754Z,18.25
2023-05-01T23:44:04.307Z,18.25
2023-05-01T23:54:10.321Z,18.27
